Time;durP1;ratioP1;P1;durP2;ratioP2;P2;SDS_P1;SDS_P2;PMS_P1;PMS_P2;Temp;Humidity;BMP_temperature;BMP_pressure;BME280_temperature;BME280_humidity;BME280_pressure;Samples;Min_cycle;Max_cycle;Signal;HPM_P1;HPM_P2
2022/02/27 00:02:01;;;;;;;8.07;2.80;;;5.10;74.20;;;;;;5025421;28;20291;-66
2022/02/27 00:04:28;;;;;;;8.27;2.40;;;5.10;74.20;;;;;;5026991;28;20296;-66
2022/02/27 00:06:55;;;;;;;4.60;2.33;;;5.10;74.70;;;;;;5014762;28;20210;-66
2022/02/27 00:09:23;;;;;;;7.77;2.80;;;5.20;74.80;;;;;;5018793;28;20209;-66
2022/02/27 00:11:50;;;;;;;8.23;3.23;;;5.10;74.40;;;;;;5023260;28;20240;-66
2022/02/27 00:14:17;;;;;;;9.50;2.47;;;5.10;74.50;;;;;;5024193;28;20221;-66
2022/02/27 00:16:44;;;;;;;13.70;3.53;;;5.10;74.50;;;;;;5019596;28;20635;-66
2022/02/27 00:19:12;;;;;;;9.13;2.87;;;5.10;74.50;;;;;;5004220;28;20228;-66
2022/02/27 00:21:41;;;;;;;4.63;2.50;;;5.00;74.50;;;;;;5028429;28;20203;-66
2022/02/27 00:24:08;;;;;;;5.37;2.67;;;5.00;74.60;;;;;;5028889;28;20218;-66
2022/02/27 00:26:35;;;;;;;8.03;2.97;;;5.00;74.60;;;;;;5028124;28;20716;-66
2022/02/27 00:29:02;;;;;;;7.73;2.90;;;5.00;74.60;;;;;;5026348;28;20212;-66
2022/02/27 00:31:29;;;;;;;6.20;3.33;;;5.00;74.60;;;;;;5019087;28;20214;-66
2022/02/27 00:33:57;;;;;;;7.83;2.87;;;4.90;74.80;;;;;;5023157;28;20235;-66
2022/02/27 00:36:24;;;;;;;6.93;3.47;;;4.90;75.20;;;;;;5024136;28;20214;-66
2022/02/27 00:38:51;;;;;;;7.93;3.10;;;4.90;75.50;;;;;;5020104;28;20205;-66
2022/02/27 00:41:19;;;;;;;8.13;4.00;;;4.90;75.80;;;;;;4999817;28;20812;-66
2022/02/27 00:43:46;;;;;;;7.80;4.23;;;4.80;76.00;;;;;;5020781;28;20201;-66
2022/02/27 00:46:14;;;;;;;6.33;3.33;;;4.80;76.10;;;;;;5024087;28;20218;-65
2022/02/27 00:48:42;;;;;;;9.40;3.23;;;4.70;76.20;;;;;;5021808;28;20234;-65
2022/02/27 00:51:09;;;;;;;8.30;3.20;;;4.70;76.70;;;;;;5017451;28;20211;-65
2022/02/27 00:53:36;;;;;;;7.00;3.73;;;4.70;77.20;;;;;;4991429;28;20300;-66
2022/02/27 00:56:04;;;;;;;13.23;3.93;;;4.70;77.50;;;;;;5008698;28;20221;-66
2022/02/27 00:58:31;;;;;;;7.50;3.33;;;4.70;77.40;;;;;;4999057;28;21008;-66
2022/02/27 01:00:59;;;;;;;6.50;3.60;;;4.70;77.20;;;;;;4987372;28;20233;-66
2022/02/27 01:03:31;;;;;;;9.10;4.07;;;4.70;77.10;;;;;;4977653;28;20199;-66
2022/02/27 01:05:58;;;;;;;8.57;3.80;;;4.70;77.20;;;;;;4982310;28;20216;-66
2022/02/27 01:08:26;;;;;;;8.33;2.90;;;4.70;77.20;;;;;;4999197;28;20215;-66
2022/02/27 01:10:53;;;;;;;5.93;3.17;;;4.60;77.10;;;;;;4974778;28;20314;-65
2022/02/27 01:13:20;;;;;;;9.40;3.63;;;4.60;77.20;;;;;;4978915;28;20201;-65
2022/02/27 01:15:47;;;;;;;8.63;3.30;;;4.50;77.30;;;;;;4994541;28;20207;-65
2022/02/27 01:18:14;;;;;;;7.47;3.70;;;4.50;77.30;;;;;;4981557;28;20568;-65
2022/02/27 01:20:41;;;;;;;8.67;3.77;;;4.40;77.20;;;;;;4983286;28;20245;-65
2022/02/27 01:23:10;;;;;;;4.10;2.67;;;4.40;77.40;;;;;;4978649;28;20225;-65
2022/02/27 01:25:38;;;;;;;12.93;3.10;;;4.30;77.50;;;;;;4980656;28;20203;-66
2022/02/27 01:28:05;;;;;;;9.00;3.40;;;4.30;77.60;;;;;;4972869;28;20202;-66
2022/02/27 01:30:33;;;;;;;10.60;3.37;;;4.30;77.90;;;;;;4985018;28;20215;-66
2022/02/27 01:33:00;;;;;;;9.43;4.00;;;4.30;77.80;;;;;;4985715;28;20211;-66
2022/02/27 01:35:27;;;;;;;8.17;3.30;;;4.30;77.70;;;;;;4977436;28;20233;-66
2022/02/27 01:37:54;;;;;;;7.37;3.40;;;4.20;77.70;;;;;;4976270;28;20225;-65
2022/02/27 01:40:23;;;;;;;7.03;3.63;;;4.20;77.70;;;;;;4983812;28;20214;-65
2022/02/27 01:42:51;;;;;;;12.53;4.10;;;4.20;77.60;;;;;;4980554;28;20229;-65
2022/02/27 01:45:18;;;;;;;8.57;3.50;;;4.20;77.80;;;;;;4978860;28;20274;-65
2022/02/27 01:47:45;;;;;;;6.50;3.83;;;4.10;77.60;;;;;;4977389;28;20299;-65
2022/02/27 01:50:12;;;;;;;6.83;3.87;;;4.10;77.70;;;;;;5000056;28;20697;-65
2022/02/27 01:52:40;;;;;;;10.47;3.47;;;4.10;78.00;;;;;;4985660;28;20221;-65
2022/02/27 01:55:09;;;;;;;8.50;3.13;;;4.00;78.10;;;;;;4983097;28;20542;-65
2022/02/27 01:57:40;;;;;;;8.47;3.40;;;4.00;78.30;;;;;;4979918;28;20276;-65
2022/02/27 02:00:08;;;;;;;8.87;3.33;;;4.00;78.40;;;;;;5013577;28;20236;-65
2022/02/27 02:02:39;;;;;;;4.80;3.00;;;4.00;78.30;;;;;;5023451;28;20213;-65
2022/02/27 02:05:07;;;;;;;6.93;3.40;;;4.10;78.10;;;;;;5018600;28;20309;-65
2022/02/27 02:07:35;;;;;;;6.93;3.37;;;4.10;77.80;;;;;;4999877;28;20546;-67
2022/02/27 02:10:04;;;;;;;7.00;3.07;;;4.10;77.60;;;;;;5016060;28;20251;-66
2022/02/27 02:12:31;;;;;;;11.33;3.63;;;4.10;77.40;;;;;;5019365;28;20306;-66
2022/02/27 02:14:59;;;;;;;5.23;2.90;;;4.10;77.10;;;;;;5016386;28;20232;-65
2022/02/27 02:17:26;;;;;;;8.03;2.83;;;4.20;76.90;;;;;;4999889;28;20327;-65
2022/02/27 02:19:54;;;;;;;6.40;3.53;;;4.20;76.80;;;;;;5014391;28;20216;-65
2022/02/27 02:22:21;;;;;;;7.00;2.93;;;4.10;76.60;;;;;;5023512;28;20219;-65
2022/02/27 02:24:49;;;;;;;4.53;2.70;;;4.10;76.60;;;;;;5008119;28;20223;-65
2022/02/27 02:27:16;;;;;;;10.77;3.00;;;4.10;76.40;;;;;;5023879;28;20220;-65
2022/02/27 02:29:44;;;;;;;8.00;3.27;;;4.00;76.00;;;;;;4991100;28;20299;-65
2022/02/27 02:32:13;;;;;;;4.73;2.90;;;4.00;75.90;;;;;;5010272;28;20219;-65
2022/02/27 02:34:40;;;;;;;9.07;3.10;;;3.90;75.70;;;;;;4986910;28;20204;-65
2022/02/27 02:37:11;;;;;;;3.87;3.47;;;3.90;75.70;;;;;;5021972;28;20246;-65
2022/02/27 02:39:39;;;;;;;5.13;2.47;;;3.90;75.70;;;;;;5003421;28;20209;-65
2022/02/27 02:42:08;;;;;;;5.30;3.20;;;3.80;75.70;;;;;;5000663;28;20242;-65
2022/02/27 02:44:40;;;;;;;4.37;3.00;;;3.70;75.70;;;;;;5004780;28;20306;-65
2022/02/27 02:47:08;;;;;;;7.33;2.60;;;3.70;75.90;;;;;;5010978;28;20221;-65
2022/02/27 02:49:35;;;;;;;5.50;2.97;;;3.60;76.20;;;;;;5024736;28;20302;-65
2022/02/27 02:52:02;;;;;;;9.90;2.87;;;3.60;76.20;;;;;;5019538;28;20219;-65
2022/02/27 02:54:29;;;;;;;4.33;3.23;;;3.60;76.10;;;;;;5010809;28;20212;-66
2022/02/27 02:56:58;;;;;;;5.63;2.77;;;3.60;75.80;;;;;;5005856;28;20641;-65
2022/02/27 02:59:25;;;;;;;6.03;3.00;;;3.60;75.50;;;;;;5027172;28;20309;-65
2022/02/27 03:01:52;;;;;;;5.10;2.73;;;3.50;76.10;;;;;;5027165;28;20231;-65
2022/02/27 03:04:20;;;;;;;3.07;2.70;;;3.50;75.50;;;;;;5015081;28;20673;-65
2022/02/27 03:06:48;;;;;;;4.57;3.13;;;3.50;75.50;;;;;;5022332;28;20205;-65
2022/02/27 03:09:15;;;;;;;6.63;3.73;;;3.40;75.60;;;;;;5025022;28;20208;-65
2022/02/27 03:11:42;;;;;;;5.37;3.23;;;3.40;75.60;;;;;;5024367;28;20208;-65
2022/02/27 03:14:09;;;;;;;7.60;3.57;;;3.30;75.40;;;;;;5002078;28;20220;-65
2022/02/27 03:16:36;;;;;;;6.60;3.43;;;3.30;75.50;;;;;;5019877;28;20205;-65
2022/02/27 03:19:04;;;;;;;6.67;3.20;;;3.20;75.80;;;;;;5029040;28;20208;-65
2022/02/27 03:21:31;;;;;;;5.23;3.30;;;3.20;76.30;;;;;;5026318;28;20233;-65
2022/02/27 03:23:58;;;;;;;5.43;3.30;;;3.10;76.50;;;;;;5004419;28;20208;-65
2022/02/27 03:26:25;;;;;;;4.57;3.43;;;3.10;76.70;;;;;;5023265;28;20208;-65
2022/02/27 03:28:52;;;;;;;8.20;3.83;;;3.10;76.70;;;;;;5021531;28;20317;-65
2022/02/27 03:31:20;;;;;;;5.27;3.70;;;3.10;76.60;;;;;;5027003;28;20215;-65
2022/02/27 03:33:48;;;;;;;7.13;3.60;;;3.00;76.50;;;;;;5010800;28;20208;-65
2022/02/27 03:36:15;;;;;;;6.30;3.20;;;3.10;76.70;;;;;;5018620;28;20234;-65
2022/02/27 03:38:43;;;;;;;5.43;3.50;;;3.00;76.60;;;;;;5020859;28;20204;-65
2022/02/27 03:41:12;;;;;;;5.03;3.57;;;3.00;76.60;;;;;;5023606;28;20215;-66
2022/02/27 03:43:39;;;;;;;4.50;3.43;;;3.00;76.50;;;;;;5025475;28;20203;-65
2022/02/27 03:46:06;;;;;;;4.57;3.40;;;3.00;76.20;;;;;;5022255;28;20214;-65
2022/02/27 03:48:33;;;;;;;6.33;3.80;;;2.90;76.00;;;;;;5020879;28;20271;-65
2022/02/27 03:51:01;;;;;;;6.60;3.47;;;2.90;76.00;;;;;;5028178;28;20206;-65
2022/02/27 03:53:29;;;;;;;5.33;3.83;;;2.90;76.20;;;;;;5023981;28;20200;-65
2022/02/27 03:55:56;;;;;;;5.93;3.93;;;2.80;76.20;;;;;;5030180;28;20269;-65
2022/02/27 03:58:23;;;;;;;6.87;4.03;;;2.80;76.00;;;;;;5023968;28;20235;-65
2022/02/27 04:00:50;;;;;;;4.73;3.40;;;2.80;75.80;;;;;;5019567;28;20229;-65
2022/02/27 04:03:18;;;;;;;5.40;4.07;;;2.70;75.60;;;;;;5023523;28;20205;-66
2022/02/27 04:05:45;;;;;;;8.97;3.87;;;2.70;75.80;;;;;;5026173;28;20215;-65
2022/02/27 04:08:12;;;;;;;6.13;3.83;;;2.70;75.90;;;;;;5020378;28;20536;-65
2022/02/27 04:10:41;;;;;;;9.13;3.80;;;2.70;76.10;;;;;;5017379;28;20204;-65
2022/02/27 04:13:08;;;;;;;5.90;4.27;;;2.60;76.00;;;;;;5021228;28;20213;-65
2022/02/27 04:15:35;;;;;;;5.47;4.00;;;2.60;76.00;;;;;;5026471;28;20214;-65
2022/02/27 04:18:02;;;;;;;7.13;3.80;;;2.50;76.00;;;;;;5022901;28;20268;-65
2022/02/27 04:20:29;;;;;;;5.87;4.00;;;2.50;76.00;;;;;;5000579;28;20211;-65
2022/02/27 04:22:56;;;;;;;6.97;4.00;;;2.40;75.90;;;;;;5007998;28;20216;-66
2022/02/27 04:25:24;;;;;;;5.10;4.07;;;2.40;75.80;;;;;;5024470;28;20201;-66
2022/02/27 04:27:53;;;;;;;5.30;3.83;;;2.40;76.20;;;;;;5026405;28;20217;-66
2022/02/27 04:30:20;;;;;;;5.73;4.33;;;2.30;76.50;;;;;;5026497;28;20204;-66
2022/02/27 04:32:48;;;;;;;8.37;4.77;;;2.30;76.70;;;;;;5016992;28;20208;-66
2022/02/27 04:35:16;;;;;;;4.87;4.30;;;2.30;76.80;;;;;;5020969;28;20626;-66
2022/02/27 04:37:43;;;;;;;7.33;4.73;;;2.20;76.70;;;;;;5023997;28;20270;-66
2022/02/27 04:40:11;;;;;;;6.07;4.47;;;2.20;77.10;;;;;;5022948;28;20198;-66
2022/02/27 04:42:39;;;;;;;5.57;4.10;;;2.30;76.60;;;;;;5017793;28;20222;-66
2022/02/27 04:45:08;;;;;;;6.90;4.83;;;2.30;76.50;;;;;;5018895;28;20654;-66
2022/02/27 04:47:35;;;;;;;6.43;4.77;;;2.30;76.00;;;;;;5025054;28;20219;-66
2022/02/27 04:50:04;;;;;;;9.57;5.00;;;2.40;75.50;;;;;;5023870;28;20193;-66
2022/02/27 04:52:32;;;;;;;6.70;4.67;;;2.30;75.20;;;;;;5019512;28;20283;-66
2022/02/27 04:54:59;;;;;;;8.27;5.03;;;2.40;75.00;;;;;;4998212;28;20222;-66
2022/02/27 04:57:26;;;;;;;7.50;4.90;;;2.40;74.70;;;;;;5019135;28;20219;-66
2022/02/27 04:59:53;;;;;;;6.37;4.20;;;2.40;74.70;;;;;;5024445;28;20250;-66
2022/02/27 05:02:20;;;;;;;8.93;5.60;;;2.40;74.80;;;;;;5025913;28;20232;-66
2022/02/27 05:04:48;;;;;;;6.80;4.67;;;2.40;74.90;;;;;;5017290;28;20202;-66
2022/02/27 05:07:15;;;;;;;8.60;4.87;;;2.30;74.90;;;;;;5018497;28;20200;-66
2022/02/27 05:09:41;;;;;;;8.83;5.67;;;2.30;74.90;;;;;;5022718;28;20266;-66
2022/02/27 05:12:09;;;;;;;8.70;5.33;;;2.30;74.90;;;;;;5023098;28;20684;-66
2022/02/27 05:14:39;;;;;;;7.77;5.40;;;2.20;75.10;;;;;;5017713;28;20633;-67
2022/02/27 05:17:26;;;;;;;5.60;4.70;;;2.20;75.30;;;;;;5020196;28;20269;-66
2022/02/27 05:19:52;;;;;;;7.63;5.03;;;2.20;75.50;;;;;;5028231;28;20630;-66
2022/02/27 05:22:19;;;;;;;7.63;5.13;;;2.20;75.60;;;;;;5024449;28;20244;-66
2022/02/27 05:24:47;;;;;;;8.20;5.17;;;2.10;75.80;;;;;;5010768;28;20249;-66
2022/02/27 05:27:14;;;;;;;9.20;5.67;;;2.10;75.80;;;;;;5021292;28;20242;-66
2022/02/27 05:29:43;;;;;;;8.63;5.47;;;2.10;75.60;;;;;;5017755;28;20330;-66
2022/02/27 05:32:11;;;;;;;8.07;5.10;;;2.10;75.70;;;;;;5023578;28;20534;-66
2022/02/27 05:34:38;;;;;;;7.70;5.70;;;2.00;75.60;;;;;;5024263;28;20613;-66
2022/02/27 05:37:05;;;;;;;9.03;5.00;;;2.00;75.40;;;;;;5013311;28;20212;-66
2022/02/27 05:39:32;;;;;;;7.87;6.20;;;1.90;75.00;;;;;;5016526;28;20699;-66
2022/02/27 05:41:59;;;;;;;8.23;6.43;;;1.90;75.20;;;;;;5022266;28;20223;-66
2022/02/27 05:44:27;;;;;;;9.83;6.10;;;1.80;75.70;;;;;;5023183;28;20262;-66
2022/02/27 05:46:54;;;;;;;10.03;6.80;;;1.80;76.90;;;;;;5018925;28;20202;-66
2022/02/27 05:49:21;;;;;;;10.73;6.63;;;1.80;76.60;;;;;;5018487;28;20200;-66
2022/02/27 05:51:49;;;;;;;9.80;6.20;;;1.80;77.00;;;;;;5026871;28;20214;-66
2022/02/27 05:54:16;;;;;;;10.40;7.03;;;1.80;77.30;;;;;;5026790;28;20224;-66
2022/02/27 05:56:43;;;;;;;15.77;7.67;;;1.80;78.30;;;;;;5014506;28;20199;-66
2022/02/27 05:59:10;;;;;;;13.57;7.07;;;1.80;77.60;;;;;;5023214;28;20240;-66
2022/02/27 06:01:38;;;;;;;13.60;7.53;;;1.80;77.50;;;;;;5015020;28;20665;-66
2022/02/27 06:04:05;;;;;;;13.27;7.27;;;1.80;77.60;;;;;;5021144;28;21092;-66
2022/02/27 06:06:32;;;;;;;20.57;7.90;;;1.80;77.60;;;;;;5024462;28;20200;-66
2022/02/27 06:08:59;;;;;;;15.20;6.87;;;1.80;77.40;;;;;;5002716;28;20212;-66
2022/02/27 06:11:26;;;;;;;13.67;8.33;;;1.80;77.20;;;;;;5015879;28;20214;-67
2022/02/27 06:13:55;;;;;;;15.87;8.23;;;1.80;77.30;;;;;;5018226;28;20207;-66
2022/02/27 06:16:22;;;;;;;14.87;8.20;;;1.80;77.40;;;;;;5025473;28;20208;-66
2022/02/27 06:18:49;;;;;;;12.57;7.87;;;1.90;77.50;;;;;;5022104;28;20240;-66
2022/02/27 06:21:17;;;;;;;11.83;7.00;;;1.90;77.70;;;;;;5017210;28;20219;-66
2022/02/27 06:23:44;;;;;;;9.50;7.13;;;1.90;77.80;;;;;;5022630;28;20586;-66
2022/02/27 06:26:11;;;;;;;13.73;7.97;;;2.00;77.70;;;;;;5021028;28;20204;-66
2022/02/27 06:28:38;;;;;;;10.47;7.13;;;2.00;77.80;;;;;;5023708;28;20212;-66
2022/02/27 06:31:05;;;;;;;13.27;7.60;;;2.00;77.70;;;;;;5020485;28;20637;-66
2022/02/27 06:33:32;;;;;;;17.37;8.53;;;2.10;77.90;;;;;;5011345;28;20308;-66
2022/02/27 06:35:59;;;;;;;15.53;8.27;;;2.20;78.00;;;;;;5020150;28;20219;-66
2022/02/27 06:38:32;;;;;;;18.23;9.13;;;2.30;78.00;;;;;;5021828;28;20210;-66
2022/02/27 06:40:59;;;;;;;12.83;7.93;;;2.30;77.70;;;;;;5018887;28;20585;-66
2022/02/27 06:43:26;;;;;;;10.93;7.57;;;2.40;77.30;;;;;;4999685;28;20256;-66
2022/02/27 06:45:53;;;;;;;15.03;7.30;;;2.60;77.20;;;;;;5016573;28;20199;-66
2022/02/27 06:48:20;;;;;;;10.60;6.57;;;2.70;76.80;;;;;;5008084;28;20203;-66
2022/02/27 06:50:47;;;;;;;9.27;6.90;;;2.80;76.60;;;;;;5023147;28;20209;-67
2022/02/27 06:53:14;;;;;;;10.77;7.60;;;2.90;75.70;;;;;;5018558;28;20212;-66
2022/02/27 06:55:41;;;;;;;11.00;6.53;;;3.00;74.70;;;;;;5021470;28;20206;-66
2022/02/27 06:58:09;;;;;;;12.57;6.53;;;3.10;74.80;;;;;;5018396;28;20204;-66
2022/02/27 07:00:36;;;;;;;9.37;6.67;;;3.20;74.90;;;;;;5001077;28;20219;-66
2022/02/27 07:03:03;;;;;;;12.37;7.20;;;3.40;74.70;;;;;;5019939;28;20261;-66
2022/02/27 07:05:30;;;;;;;12.33;5.90;;;3.50;74.40;;;;;;5015772;28;20192;-66
2022/02/27 07:07:57;;;;;;;10.30;6.03;;;3.70;74.00;;;;;;5000247;28;20660;-66
2022/02/27 07:10:24;;;;;;;8.70;6.53;;;3.80;73.50;;;;;;5019709;28;20215;-66
2022/02/27 07:12:53;;;;;;;9.40;6.20;;;3.90;73.20;;;;;;4998954;28;20231;-66
2022/02/27 07:15:22;;;;;;;9.20;6.07;;;4.10;73.20;;;;;;5017392;28;20208;-66
2022/02/27 07:17:50;;;;;;;7.57;6.13;;;4.20;73.00;;;;;;5001176;28;20203;-66
2022/02/27 07:20:16;;;;;;;7.13;5.73;;;4.30;72.60;;;;;;5026404;28;20210;-66
2022/02/27 07:22:43;;;;;;;10.83;6.00;;;4.50;72.10;;;;;;5007317;28;20220;-66
2022/02/27 07:25:11;;;;;;;9.57;6.00;;;4.70;71.50;;;;;;5026753;28;20263;-66
2022/02/27 07:27:38;;;;;;;8.03;5.80;;;4.90;71.20;;;;;;5023444;28;20491;-66
2022/02/27 07:30:06;;;;;;;8.20;6.33;;;5.00;70.80;;;;;;5019751;28;20209;-66
2022/02/27 07:32:33;;;;;;;9.73;6.30;;;5.30;70.60;;;;;;5023478;28;20201;-66
2022/02/27 07:35:00;;;;;;;10.40;5.80;;;5.60;70.30;;;;;;5024224;28;20233;-66
2022/02/27 07:37:27;;;;;;;7.83;5.73;;;5.90;69.20;;;;;;5021541;28;20522;-65
2022/02/27 07:39:54;;;;;;;7.33;5.40;;;6.10;68.40;;;;;;4998786;28;20214;-66
2022/02/27 07:42:22;;;;;;;9.17;5.63;;;6.40;67.80;;;;;;5021967;28;20228;-66
2022/02/27 07:44:49;;;;;;;8.30;5.23;;;6.60;66.60;;;;;;5025859;28;20206;-66
2022/02/27 07:47:16;;;;;;;11.53;5.30;;;6.80;65.70;;;;;;5023229;28;20588;-66
2022/02/27 07:49:43;;;;;;;9.60;5.37;;;7.00;65.70;;;;;;5018720;28;20213;-66
2022/02/27 07:52:12;;;;;;;8.40;4.67;;;7.20;65.70;;;;;;5028442;28;20279;-66
2022/02/27 07:54:39;;;;;;;7.33;4.53;;;7.30;64.10;;;;;;5023832;28;20214;-66
2022/02/27 07:57:06;;;;;;;6.37;3.80;;;7.50;64.00;;;;;;5019348;28;20215;-65
2022/02/27 07:59:33;;;;;;;7.57;3.67;;;7.60;59.10;;;;;;5003637;28;20244;-65
2022/02/27 08:02:00;;;;;;;5.07;3.30;;;7.80;59.20;;;;;;4998200;28;20572;-65
2022/02/27 08:04:29;;;;;;;6.27;3.77;;;7.90;58.90;;;;;;5001958;28;20206;-65
2022/02/27 08:06:58;;;;;;;9.73;5.00;;;8.00;58.80;;;;;;5004249;28;20204;-65
2022/02/27 08:09:25;;;;;;;5.67;3.70;;;8.20;58.50;;;;;;5003132;28;20224;-65
2022/02/27 08:11:52;;;;;;;3.57;2.20;;;8.40;57.60;;;;;;4998789;28;20206;-65
2022/02/27 08:14:19;;;;;;;3.77;2.10;;;8.50;56.90;;;;;;4999567;28;20550;-65
2022/02/27 08:16:46;;;;;;;2.30;1.90;;;8.60;54.80;;;;;;5006914;28;20229;-65
2022/02/27 08:19:13;;;;;;;3.83;2.43;;;8.70;53.80;;;;;;5004949;28;20645;-65
2022/02/27 08:21:40;;;;;;;4.43;1.90;;;8.80;53.90;;;;;;5016107;28;20236;-65
2022/02/27 08:24:08;;;;;;;3.77;1.53;;;8.90;52.50;;;;;;4997712;28;20606;-65
2022/02/27 08:26:36;;;;;;;1.90;1.70;;;9.10;51.90;;;;;;5001785;28;20217;-65
2022/02/27 08:29:06;;;;;;;2.57;1.30;;;9.20;51.00;;;;;;5006076;28;20549;-65
2022/02/27 08:31:40;;;;;;;3.17;1.50;;;9.30;51.40;;;;;;5006249;28;20260;-65
2022/02/27 08:34:09;;;;;;;2.40;1.80;;;9.30;52.00;;;;;;4997993;28;20201;-65
2022/02/27 08:36:39;;;;;;;2.80;1.70;;;9.50;50.90;;;;;;4999210;28;20227;-65
2022/02/27 08:39:07;;;;;;;2.53;1.60;;;9.50;50.20;;;;;;5003652;28;20224;-65
2022/02/27 08:41:36;;;;;;;1.90;1.60;;;9.60;50.40;;;;;;5004071;28;20715;-65
2022/02/27 08:44:04;;;;;;;3.63;1.80;;;9.70;52.70;;;;;;4999804;28;20212;-65
2022/02/27 08:46:32;;;;;;;1.97;1.40;;;9.80;48.80;;;;;;5004201;28;20211;-65
2022/02/27 08:48:59;;;;;;;3.33;1.23;;;9.90;50.00;;;;;;5004523;28;20211;-65
2022/02/27 08:51:26;;;;;;;1.70;1.37;;;10.00;49.10;;;;;;5006917;28;20197;-65
2022/02/27 08:53:54;;;;;;;3.27;1.60;;;10.10;48.60;;;;;;5006926;28;20277;-65
2022/02/27 08:56:21;;;;;;;4.47;1.70;;;10.20;50.40;;;;;;5009668;28;20657;-65
2022/02/27 08:58:48;;;;;;;3.60;1.80;;;10.30;48.70;;;;;;5005934;28;20324;-65
2022/02/27 09:01:15;;;;;;;2.90;1.23;;;10.40;49.10;;;;;;5023438;28;20270;-65
2022/02/27 09:03:44;;;;;;;3.93;1.60;;;10.50;47.70;;;;;;5024292;28;20223;-65
2022/02/27 09:06:11;;;;;;;3.77;1.60;;;10.70;48.00;;;;;;5016021;28;20218;-65
2022/02/27 09:08:41;;;;;;;2.33;1.70;;;10.70;47.50;;;;;;5017103;28;20544;-65
2022/02/27 09:11:09;;;;;;;2.53;1.63;;;10.80;45.20;;;;;;5020097;28;20207;-65
2022/02/27 09:13:37;;;;;;;2.77;1.80;;;10.70;44.20;;;;;;5023474;28;20642;-65
2022/02/27 09:16:04;;;;;;;1.87;1.43;;;10.80;46.30;;;;;;5022807;28;20635;-65
2022/02/27 09:18:32;;;;;;;2.40;1.50;;;10.90;43.60;;;;;;5019374;28;20215;-66
2022/02/27 09:20:59;;;;;;;0.97;0.93;;;10.90;44.90;;;;;;5027787;28;20211;-66
2022/02/27 09:23:26;;;;;;;2.03;1.50;;;11.00;44.50;;;;;;5025181;28;20247;-66
2022/02/27 09:25:54;;;;;;;1.40;1.20;;;11.10;44.20;;;;;;5026767;28;20668;-66
2022/02/27 09:28:41;;;;;;;1.30;1.20;;;11.20;42.20;;;;;;5015423;28;20262;-66
2022/02/27 09:31:08;;;;;;;3.60;1.30;;;11.30;42.10;;;;;;5018396;28;20203;-66
2022/02/27 09:33:35;;;;;;;1.43;1.10;;;11.40;40.80;;;;;;5021614;28;20308;-65
2022/02/27 09:36:03;;;;;;;2.13;1.30;;;11.40;39.40;;;;;;5023327;28;20539;-65
2022/02/27 09:38:30;;;;;;;1.10;1.00;;;11.50;41.80;;;;;;5019606;28;20213;-65
2022/02/27 09:40:58;;;;;;;2.27;1.10;;;11.50;39.70;;;;;;5015195;28;20208;-65
2022/02/27 09:43:25;;;;;;;1.33;1.23;;;11.50;39.10;;;;;;5020848;28;20225;-65
2022/02/27 09:45:54;;;;;;;1.70;1.10;;;11.60;38.40;;;;;;5008738;28;20558;-65
2022/02/27 09:48:22;;;;;;;1.27;1.07;;;11.70;40.50;;;;;;5019572;28;20649;-65
2022/02/27 09:50:50;;;;;;;1.10;0.97;;;11.80;39.50;;;;;;5019359;28;20205;-65
2022/02/27 09:53:17;;;;;;;1.77;1.10;;;11.80;36.60;;;;;;5021041;28;20222;-65
2022/02/27 09:55:47;;;;;;;2.83;1.20;;;11.90;37.20;;;;;;5015164;28;20208;-65
2022/02/27 09:58:14;;;;;;;1.50;1.00;;;11.90;37.60;;;;;;5024204;28;20249;-65
2022/02/27 10:00:41;;;;;;;2.27;1.00;;;11.90;36.20;;;;;;5018027;28;20207;-65
2022/02/27 10:03:16;;;;;;;3.00;0.93;;;12.00;36.40;;;;;;5015789;28;20220;-65
2022/02/27 10:05:45;;;;;;;0.87;0.80;;;12.00;36.30;;;;;;5016529;28;20544;-66
2022/02/27 10:08:14;;;;;;;0.70;0.70;;;12.10;37.20;;;;;;5024949;28;20203;-66
2022/02/27 10:10:56;;;;;;;0.60;0.60;;;12.10;35.20;;;;;;5020642;28;20284;-65
2022/02/27 10:13:33;;;;;;;1.17;1.00;;;12.20;34.50;;;;;;5015794;28;20642;-65
2022/02/27 10:16:09;;;;;;;3.90;1.10;;;12.20;35.70;;;;;;5019869;28;20239;-65
2022/02/27 10:18:59;;;;;;;1.77;1.20;;;12.20;33.80;;;;;;5022204;28;20211;-65
2022/02/27 10:21:39;;;;;;;0.87;0.80;;;12.20;34.70;;;;;;5022985;28;20224;-66
2022/02/27 10:24:22;;;;;;;0.90;0.80;;;12.20;34.80;;;;;;5025515;28;20220;-65
2022/02/27 10:26:51;;;;;;;4.07;1.13;;;12.30;35.00;;;;;;5016894;28;20200;-65
2022/02/27 10:29:26;;;;;;;1.43;1.10;;;12.40;34.80;;;;;;5021992;28;20208;-65
2022/02/27 10:31:57;;;;;;;1.07;0.80;;;12.40;35.90;;;;;;5024614;28;20623;-65
2022/02/27 10:34:36;;;;;;;1.33;1.23;;;12.50;36.90;;;;;;5017244;28;20204;-65
2022/02/27 10:37:16;;;;;;;1.97;1.30;;;12.60;34.20;;;;;;5012265;28;20200;-65
2022/02/27 10:39:46;;;;;;;1.83;1.07;;;12.60;36.50;;;;;;5021164;28;20205;-65
2022/02/27 10:42:20;;;;;;;2.37;1.00;;;12.60;33.30;;;;;;4998287;28;20228;-66
2022/02/27 10:45:04;;;;;;;2.00;1.00;;;12.50;34.50;;;;;;5018347;28;20615;-65
2022/02/27 10:47:35;;;;;;;3.17;1.20;;;12.30;33.20;;;;;;5018235;28;20208;-65
2022/02/27 10:50:09;;;;;;;2.87;1.10;;;12.10;34.00;;;;;;5025452;28;20213;-65
2022/02/27 10:52:44;;;;;;;2.03;1.53;;;12.00;36.40;;;;;;5020908;28;20217;-65
2022/02/27 10:55:13;;;;;;;1.40;1.13;;;12.00;34.70;;;;;;5028661;28;20208;-65
2022/02/27 10:57:41;;;;;;;2.13;1.10;;;12.10;33.80;;;;;;5018478;28;20204;-65
2022/02/27 11:00:24;;;;;;;3.20;0.90;;;12.10;32.30;;;;;;5013633;28;20240;-65
2022/02/27 11:02:59;;;;;;;2.10;1.03;;;12.10;33.00;;;;;;5025258;28;20659;-65
2022/02/27 11:05:38;;;;;;;2.00;1.10;;;12.20;32.40;;;;;;5024554;28;20305;-65
2022/02/27 11:08:11;;;;;;;1.67;1.10;;;12.20;32.70;;;;;;4984001;28;20213;-65
2022/02/27 11:10:41;;;;;;;1.33;1.20;;;12.00;32.30;;;;;;5018782;28;20210;-65
2022/02/27 11:13:10;;;;;;;1.17;1.07;;;11.70;31.70;;;;;;5026264;28;20877;-65
2022/02/27 11:15:38;;;;;;;1.13;1.03;;;11.60;33.60;;;;;;5025508;28;20226;-65
2022/02/27 11:18:06;;;;;;;1.23;1.13;;;11.50;33.60;;;;;;5018893;28;20201;-65
2022/02/27 11:20:34;;;;;;;1.53;1.00;;;11.40;33.90;;;;;;5023253;28;20212;-65
2022/02/27 11:23:01;;;;;;;1.97;1.23;;;11.30;35.10;;;;;;5025738;28;20242;-66
2022/02/27 11:25:29;;;;;;;1.60;1.30;;;11.30;34.40;;;;;;5027421;28;20676;-66
2022/02/27 11:28:10;;;;;;;2.77;1.13;;;11.20;35.70;;;;;;5029515;28;20197;-65
2022/02/27 11:30:39;;;;;;;1.20;1.00;;;11.30;35.50;;;;;;5019205;28;20540;-65
2022/02/27 11:33:27;;;;;;;1.37;1.20;;;11.30;35.80;;;;;;5020643;28;20268;-65
2022/02/27 11:35:59;;;;;;;1.60;1.03;;;11.40;37.20;;;;;;5025457;28;20228;-65
2022/02/27 11:38:39;;;;;;;1.13;1.03;;;11.50;36.90;;;;;;5021410;28;20226;-65
2022/02/27 11:41:16;;;;;;;2.00;1.43;;;11.70;37.10;;;;;;4998495;28;20595;-65
2022/02/27 11:43:54;;;;;;;1.77;1.10;;;11.70;35.70;;;;;;5022319;28;20235;-65
2022/02/27 11:46:42;;;;;;;1.87;1.50;;;11.70;34.20;;;;;;5027506;28;20206;-66
2022/02/27 11:49:15;;;;;;;3.73;1.80;;;11.70;35.30;;;;;;5017548;28;20204;-65
2022/02/27 11:51:44;;;;;;;2.10;1.37;;;11.70;34.20;;;;;;5021633;28;20207;-65
2022/02/27 11:54:24;;;;;;;2.17;1.50;;;11.70;33.60;;;;;;5018995;28;20230;-65
2022/02/27 11:56:59;;;;;;;1.47;1.30;;;11.80;33.70;;;;;;5022501;28;20215;-65
2022/02/27 12:00:02;;;;;;;1.30;1.20;;;11.80;35.90;;;;;;5027985;28;20243;-65
2022/02/27 12:02:39;;;;;;;2.20;1.33;;;11.90;34.60;;;;;;5018222;28;20211;-65
2022/02/27 12:05:18;;;;;;;1.77;1.20;;;12.10;34.80;;;;;;5018546;28;20276;-65
2022/02/27 12:08:00;;;;;;;1.73;1.20;;;12.10;35.60;;;;;;5022500;28;20204;-65
2022/02/27 12:10:38;;;;;;;2.73;1.13;;;12.20;33.40;;;;;;5025207;28;20223;-65
2022/02/27 12:13:28;;;;;;;1.90;1.33;;;12.20;32.40;;;;;;5021112;28;20257;-65
2022/02/27 12:16:13;;;;;;;1.17;1.07;;;12.30;32.10;;;;;;5021532;28;20215;-65
2022/02/27 12:18:57;;;;;;;1.83;1.37;;;12.30;33.70;;;;;;5029389;28;20216;-65
2022/02/27 12:21:36;;;;;;;1.27;1.17;;;12.30;34.30;;;;;;5026285;28;20547;-65
2022/02/27 12:24:14;;;;;;;1.53;1.03;;;12.30;34.00;;;;;;5014472;28;20690;-65
2022/02/27 12:26:48;;;;;;;1.67;1.10;;;12.20;32.80;;;;;;5014835;28;20306;-65
2022/02/27 12:29:25;;;;;;;1.43;1.13;;;12.20;34.40;;;;;;5021320;28;20207;-65
2022/02/27 12:31:54;;;;;;;1.70;1.60;;;12.20;33.20;;;;;;5027107;28;20203;-65
2022/02/27 12:34:23;;;;;;;1.70;1.27;;;12.20;34.30;;;;;;5016605;28;20546;-65
2022/02/27 12:36:57;;;;;;;1.57;1.10;;;12.20;33.00;;;;;;5018886;28;20558;-65
2022/02/27 12:39:31;;;;;;;4.10;1.50;;;12.20;32.50;;;;;;5020058;28;20214;-65
2022/02/27 12:41:58;;;;;;;2.00;1.30;;;12.30;33.50;;;;;;5025660;28;20216;-65
2022/02/27 12:44:33;;;;;;;3.40;1.13;;;12.30;33.10;;;;;;5003157;28;20268;-65
2022/02/27 12:47:04;;;;;;;1.30;1.10;;;12.40;33.60;;;;;;5018478;28;20229;-65
2022/02/27 12:52:30;;;;;;;1.70;1.33;;;12.40;33.00;;;;;;5021969;28;20227;-65
2022/02/27 12:54:57;;;;;;;1.50;1.23;;;12.50;31.80;;;;;;5020655;28;20213;-65
2022/02/27 12:57:24;;;;;;;1.47;1.20;;;12.50;34.00;;;;;;5022545;28;20201;-65
2022/02/27 12:59:52;;;;;;;2.73;1.40;;;12.50;34.30;;;;;;5018161;28;20319;-65
2022/02/27 13:02:25;;;;;;;2.07;1.20;;;12.50;32.10;;;;;;5003522;28;20601;-65
2022/02/27 13:04:58;;;;;;;1.43;1.33;;;12.50;35.30;;;;;;5006145;28;20281;-65
2022/02/27 13:07:27;;;;;;;1.60;1.37;;;12.50;32.80;;;;;;5020702;28;20198;-65